Time;durP1;ratioP1;P1;durP2;ratioP2;P2;SDS_P1;SDS_P2;PMS_P1;PMS_P2;Temp;Humidity;BMP_temperature;BMP_pressure;BME280_temperature;BME280_humidity;BME280_pressure;Samples;Min_cycle;Max_cycle;Signal;HPM_P1;HPM_P2
2021/04/25 00:01:51;;;;;;;0.15;0.15;;;7.80;99.90;;;;;;4992230;28;20191;-69
2021/04/25 00:04:17;;;;;;;0.30;0.30;;;7.70;99.90;;;;;;4992044;28;20178;-70
2021/04/25 00:06:43;;;;;;;1.05;0.55;;;7.70;99.90;;;;;;4992147;28;20168;-69
2021/04/25 00:09:11;;;;;;;0.30;0.30;;;7.60;99.90;;;;;;4992635;28;20269;-69
2021/04/25 00:11:37;;;;;;;0.30;0.30;;;7.50;99.90;;;;;;4991207;28;20182;-69
2021/04/25 00:14:04;;;;;;;0.30;0.30;;;7.40;99.90;;;;;;4990628;28;20251;-69
2021/04/25 00:16:34;;;;;;;0.15;0.15;;;7.30;99.90;;;;;;4990458;28;20210;-69
2021/04/25 00:19:03;;;;;;;0.10;0.10;;;7.40;99.90;;;;;;4991798;28;20251;-69
2021/04/25 00:21:29;;;;;;;0.10;0.10;;;7.30;99.90;;;;;;4991633;28;20269;-69
2021/04/25 00:23:56;;;;;;;0.10;0.10;;;7.20;99.90;;;;;;4991601;28;20187;-69
2021/04/25 00:26:23;;;;;;;0.10;0.10;;;7.30;99.90;;;;;;4991714;28;20174;-69
2021/04/25 00:28:49;;;;;;;0.00;0.00;;;7.20;99.90;;;;;;4991554;28;20206;-69
2021/04/25 00:31:15;;;;;;;0.10;0.10;;;7.10;99.90;;;;;;4990197;28;20172;-69
2021/04/25 00:33:41;;;;;;;0.57;0.57;;;7.20;99.90;;;;;;4991590;28;20160;-69
2021/04/25 00:36:07;;;;;;;0.30;0.30;;;7.30;99.90;;;;;;4991529;28;20170;-69
2021/04/25 00:38:33;;;;;;;0.22;0.22;;;7.20;99.90;;;;;;4991468;28;20183;-69
2021/04/25 00:40:59;;;;;;;0.22;0.22;;;7.30;99.90;;;;;;4990923;28;20159;-69
2021/04/25 00:43:25;;;;;;;0.20;0.20;;;7.30;99.90;;;;;;4991477;28;20191;-69
2021/04/25 00:45:51;;;;;;;0.20;0.20;;;7.10;99.90;;;;;;4990075;28;20163;-70
2021/04/25 00:48:18;;;;;;;0.77;0.77;;;7.00;99.90;;;;;;4991489;28;20284;-69
2021/04/25 00:50:44;;;;;;;1.40;0.45;;;7.10;99.90;;;;;;4991147;28;20190;-69
2021/04/25 00:53:10;;;;;;;0.40;0.40;;;7.00;99.90;;;;;;4991260;28;20238;-69
2021/04/25 00:55:37;;;;;;;0.95;0.95;;;6.90;99.90;;;;;;4989802;28;20200;-69
2021/04/25 00:58:03;;;;;;;1.75;1.65;;;6.90;99.90;;;;;;4989623;28;20273;-69
2021/04/25 01:00:32;;;;;;;0.50;0.50;;;6.90;99.90;;;;;;4990888;28;20242;-69
2021/04/25 01:02:58;;;;;;;0.45;0.45;;;6.80;99.90;;;;;;4991057;28;20159;-69
2021/04/25 01:05:24;;;;;;;0.10;0.10;;;6.80;99.90;;;;;;4974282;28;20187;-69
2021/04/25 01:07:50;;;;;;;0.88;0.88;;;6.80;99.90;;;;;;4971579;28;20168;-69
2021/04/25 01:10:18;;;;;;;0.10;0.10;;;6.80;99.90;;;;;;4971524;28;20195;-69
2021/04/25 01:12:45;;;;;;;0.52;0.52;;;6.80;99.90;;;;;;4971553;28;20167;-69
2021/04/25 01:15:14;;;;;;;1.27;1.20;;;6.90;99.90;;;;;;4970210;29;20614;-69
2021/04/25 01:17:44;;;;;;;0.45;0.45;;;6.90;99.90;;;;;;4971506;28;20254;-69
2021/04/25 01:20:12;;;;;;;0.35;0.17;;;6.90;99.90;;;;;;4971043;28;20218;-69
2021/04/25 01:22:38;;;;;;;0.25;0.25;;;6.80;99.90;;;;;;4971342;28;20184;-69
2021/04/25 01:25:09;;;;;;;0.15;0.15;;;6.80;99.90;;;;;;4971392;28;20215;-69
2021/04/25 01:27:36;;;;;;;0.65;0.65;;;6.90;99.90;;;;;;4971289;28;20251;-69
2021/04/25 01:30:05;;;;;;;0.20;0.20;;;7.00;99.90;;;;;;4971193;28;20670;-69
2021/04/25 01:32:31;;;;;;;2.28;1.58;;;7.10;99.90;;;;;;4985985;28;20180;-69
2021/04/25 01:34:57;;;;;;;0.30;0.30;;;7.10;99.90;;;;;;4971149;28;20160;-69
2021/04/25 01:37:23;;;;;;;0.50;0.50;;;7.00;99.90;;;;;;4970803;28;20192;-69
2021/04/25 01:39:50;;;;;;;2.25;0.85;;;7.00;99.90;;;;;;4970824;28;20198;-69
2021/04/25 01:42:16;;;;;;;0.10;0.10;;;7.00;99.90;;;;;;4970845;28;20212;-69
2021/04/25 01:44:42;;;;;;;0.63;0.38;;;6.90;99.90;;;;;;4970779;28;20595;-69
2021/04/25 01:47:08;;;;;;;0.50;0.50;;;6.90;99.90;;;;;;4970690;28;20164;-69
2021/04/25 01:49:35;;;;;;;0.35;0.30;;;6.90;99.90;;;;;;4969369;29;20199;-69
2021/04/25 01:52:01;;;;;;;0.20;0.20;;;6.90;99.90;;;;;;4969978;28;20219;-68
2021/04/25 01:54:28;;;;;;;1.08;0.90;;;6.90;99.90;;;;;;4969232;29;20168;-69
2021/04/25 01:56:54;;;;;;;0.45;0.45;;;6.90;99.90;;;;;;4972559;28;20184;-69
2021/04/25 01:59:20;;;;;;;1.08;0.98;;;6.80;99.90;;;;;;4989813;28;20215;-69
2021/04/25 02:01:46;;;;;;;0.70;0.70;;;6.80;99.90;;;;;;4989881;28;20166;-69
2021/04/25 02:04:13;;;;;;;0.10;0.10;;;6.80;99.90;;;;;;4985071;28;20180;-69
2021/04/25 02:06:42;;;;;;;0.43;0.43;;;6.80;99.90;;;;;;4989888;28;20167;-69
2021/04/25 02:09:10;;;;;;;1.25;1.15;;;6.80;99.90;;;;;;4983425;28;20230;-70
2021/04/25 02:11:37;;;;;;;0.50;0.50;;;6.80;99.90;;;;;;4970381;28;20168;-69
2021/04/25 02:14:08;;;;;;;0.20;0.20;;;6.80;99.90;;;;;;4970366;28;20346;-68
2021/04/25 02:16:34;;;;;;;1.52;1.42;;;6.70;99.90;;;;;;4970168;28;20192;-69
2021/04/25 02:19:01;;;;;;;1.40;0.47;;;6.70;99.90;;;;;;4969947;28;20218;-69
2021/04/25 02:21:27;;;;;;;0.60;0.50;;;6.60;99.90;;;;;;4970088;28;20219;-69
2021/04/25 02:23:55;;;;;;;0.20;0.20;;;6.60;99.90;;;;;;4970285;28;20168;-68
2021/04/25 02:26:22;;;;;;;0.55;0.55;;;6.70;99.90;;;;;;4970248;28;20161;-68
2021/04/25 02:28:48;;;;;;;0.50;0.50;;;6.70;99.90;;;;;;4970149;28;20171;-69
2021/04/25 02:31:14;;;;;;;0.20;0.20;;;6.70;99.90;;;;;;4970422;28;20168;-68
2021/04/25 02:33:40;;;;;;;0.47;0.43;;;6.70;99.90;;;;;;4970127;28;20195;-68
2021/04/25 02:36:07;;;;;;;0.30;0.30;;;6.70;99.90;;;;;;4969977;28;20196;-69
2021/04/25 02:38:33;;;;;;;0.47;0.47;;;6.70;99.90;;;;;;4969988;28;20156;-68
2021/04/25 02:40:59;;;;;;;0.50;0.50;;;6.60;99.90;;;;;;4970379;28;20167;-68
2021/04/25 02:43:25;;;;;;;3.58;1.65;;;6.60;99.90;;;;;;4970262;28;20179;-69
2021/04/25 02:45:51;;;;;;;0.20;0.20;;;6.60;99.90;;;;;;4969976;28;20208;-69
2021/04/25 02:48:17;;;;;;;0.85;0.85;;;6.60;99.90;;;;;;4970047;28;20245;-68
2021/04/25 02:50:45;;;;;;;1.38;0.90;;;6.60;99.90;;;;;;4968736;28;20233;-70
2021/04/25 02:53:13;;;;;;;1.67;1.58;;;6.60;99.90;;;;;;4970037;28;20165;-69
2021/04/25 02:55:39;;;;;;;0.10;0.10;;;6.50;99.90;;;;;;4969893;28;20157;-69
2021/04/25 02:58:06;;;;;;;0.10;0.10;;;6.50;99.90;;;;;;4980139;28;20266;-68
2021/04/25 03:00:33;;;;;;;0.10;0.10;;;6.60;99.90;;;;;;4989075;28;20191;-69
2021/04/25 03:02:59;;;;;;;1.00;1.00;;;6.60;99.90;;;;;;4989172;28;20159;-69
2021/04/25 03:05:26;;;;;;;0.63;0.63;;;6.60;99.90;;;;;;4992966;28;20207;-68
2021/04/25 03:07:53;;;;;;;0.60;0.60;;;6.60;99.90;;;;;;4993119;28;20221;-69
2021/04/25 03:10:20;;;;;;;0.40;0.40;;;6.60;99.90;;;;;;4993025;28;20214;-70
2021/04/25 03:12:47;;;;;;;0.20;0.20;;;6.60;99.90;;;;;;4993207;28;20235;-68
2021/04/25 03:15:15;;;;;;;1.00;0.40;;;6.60;99.90;;;;;;4991634;28;20231;-69
2021/04/25 03:17:41;;;;;;;1.02;1.02;;;6.50;99.90;;;;;;4992554;28;20190;-69
2021/04/25 03:20:10;;;;;;;0.45;0.45;;;6.50;99.90;;;;;;4992547;28;20219;-70
2021/04/25 03:22:37;;;;;;;1.17;0.35;;;6.50;99.90;;;;;;4992748;28;20179;-68
2021/04/25 03:25:05;;;;;;;0.10;0.10;;;6.60;99.90;;;;;;4992702;28;20171;-69
2021/04/25 03:27:31;;;;;;;0.40;0.40;;;6.60;99.90;;;;;;4992725;28;20187;-68
2021/04/25 03:29:57;;;;;;;0.20;0.20;;;6.70;99.90;;;;;;4991290;28;20203;-68
2021/04/25 03:32:23;;;;;;;0.20;0.20;;;6.60;99.90;;;;;;4992558;28;20163;-68
2021/04/25 03:34:49;;;;;;;0.20;0.20;;;6.60;99.90;;;;;;4991247;28;20214;-69
2021/04/25 03:37:15;;;;;;;0.20;0.20;;;6.50;99.90;;;;;;4992472;28;20196;-69
2021/04/25 03:39:41;;;;;;;0.35;0.35;;;6.60;99.90;;;;;;4992224;28;20199;-69
2021/04/25 03:42:07;;;;;;;0.43;0.43;;;6.40;99.90;;;;;;4992475;28;20180;-69
2021/04/25 03:44:33;;;;;;;0.20;0.20;;;6.30;99.90;;;;;;4992719;28;20187;-69
2021/04/25 03:46:59;;;;;;;6.30;1.17;;;6.30;99.90;;;;;;4992432;28;20156;-69
2021/04/25 03:49:25;;;;;;;0.70;0.70;;;6.30;99.90;;;;;;4992090;28;20334;-69
2021/04/25 03:51:52;;;;;;;1.00;0.95;;;6.40;99.90;;;;;;4992676;28;20187;-69
2021/04/25 03:54:19;;;;;;;0.35;0.35;;;6.40;99.90;;;;;;4992843;28;20159;-68
2021/04/25 03:56:45;;;;;;;0.68;0.68;;;6.40;99.90;;;;;;4992016;28;20214;-71
2021/04/25 03:59:11;;;;;;;0.32;0.32;;;6.40;99.90;;;;;;4973005;28;20592;-68
2021/04/25 04:01:37;;;;;;;0.85;0.85;;;6.20;99.90;;;;;;4971985;29;20172;-69
2021/04/25 04:04:03;;;;;;;0.20;0.20;;;6.20;99.90;;;;;;4972523;28;20176;-68
2021/04/25 04:06:30;;;;;;;0.73;0.73;;;6.30;99.90;;;;;;4991846;28;20177;-68
2021/04/25 04:08:56;;;;;;;1.08;0.98;;;6.40;99.90;;;;;;4990251;28;20257;-68
2021/04/25 04:11:22;;;;;;;1.25;1.23;;;6.40;99.90;;;;;;4990543;28;20192;-68
2021/04/25 04:13:49;;;;;;;1.20;0.63;;;6.40;99.90;;;;;;4991819;28;20163;-69
2021/04/25 04:16:17;;;;;;;0.80;0.55;;;6.50;99.90;;;;;;4990813;28;20238;-69
2021/04/25 04:18:43;;;;;;;0.17;0.17;;;6.50;99.90;;;;;;4991509;28;20163;-69
2021/04/25 04:21:10;;;;;;;0.10;0.10;;;6.60;99.90;;;;;;4991415;28;20219;-69
2021/04/25 04:23:36;;;;;;;0.63;0.63;;;6.70;99.90;;;;;;4991579;28;20170;-69
2021/04/25 04:26:02;;;;;;;0.82;0.82;;;6.80;99.90;;;;;;4991456;28;20211;-69
2021/04/25 04:28:28;;;;;;;0.20;0.20;;;6.80;99.90;;;;;;4991507;28;20170;-69
2021/04/25 04:30:54;;;;;;;0.10;0.10;;;6.90;99.90;;;;;;4991345;28;20191;-69
2021/04/25 04:33:20;;;;;;;0.05;0.05;;;6.90;99.90;;;;;;4990058;28;20183;-69
2021/04/25 04:35:45;;;;;;;0.10;0.10;;;7.10;99.90;;;;;;4991424;28;20180;-69
2021/04/25 04:38:11;;;;;;;0.30;0.30;;;7.20;99.90;;;;;;4991334;28;20187;-70
2021/04/25 04:40:37;;;;;;;0.20;0.20;;;7.30;99.90;;;;;;4990908;28;20202;-69
2021/04/25 04:43:03;;;;;;;0.43;0.43;;;7.50;99.90;;;;;;4991245;28;20159;-70
2021/04/25 04:45:29;;;;;;;0.47;0.47;;;7.80;99.90;;;;;;4991224;28;20167;-70
2021/04/25 04:47:55;;;;;;;1.02;1.02;;;8.30;99.90;;;;;;4991308;28;20178;-70
2021/04/25 04:50:21;;;;;;;0.32;0.32;;;8.70;99.90;;;;;;4991252;28;20223;-69
2021/04/25 04:52:48;;;;;;;0.40;0.40;;;8.70;99.90;;;;;;4991236;28;20160;-70
2021/04/25 04:55:15;;;;;;;0.77;0.77;;;8.90;99.90;;;;;;4991011;28;20251;-68
2021/04/25 04:57:42;;;;;;;0.28;0.28;;;9.00;99.90;;;;;;4982438;28;20215;-69
2021/04/25 05:00:10;;;;;;;0.98;0.98;;;9.30;99.90;;;;;;4971573;28;20256;-69
2021/04/25 05:02:36;;;;;;;1.02;0.88;;;9.90;99.90;;;;;;4971722;28;20153;-69
2021/04/25 05:05:02;;;;;;;0.75;0.75;;;10.70;99.90;;;;;;4976118;28;20183;-69
2021/04/25 05:07:28;;;;;;;1.00;0.80;;;11.10;99.90;;;;;;4971430;28;20258;-69
2021/04/25 05:09:54;;;;;;;0.08;0.08;;;11.60;99.90;;;;;;4971497;28;20199;-69
2021/04/25 05:12:20;;;;;;;0.40;0.40;;;12.40;99.90;;;;;;4971424;28;20230;-69
2021/04/25 05:14:46;;;;;;;0.52;0.52;;;13.00;99.90;;;;;;4986219;28;20212;-69
2021/04/25 05:17:11;;;;;;;0.10;0.10;;;13.00;99.90;;;;;;4971435;28;20188;-69
2021/04/25 05:19:37;;;;;;;0.20;0.20;;;13.50;99.90;;;;;;4970894;28;20192;-70
2021/04/25 05:22:03;;;;;;;1.20;1.15;;;13.80;99.90;;;;;;4986077;28;20196;-70
2021/04/25 05:24:29;;;;;;;0.25;0.25;;;14.00;99.90;;;;;;4971354;28;20531;-70
2021/04/25 05:26:55;;;;;;;0.47;0.47;;;14.50;99.90;;;;;;4971220;28;20164;-69
2021/04/25 05:29:21;;;;;;;0.30;0.30;;;14.70;99.90;;;;;;4985778;28;20238;-70
2021/04/25 05:31:47;;;;;;;1.35;1.25;;;15.20;99.90;;;;;;4985821;28;20176;-70
2021/04/25 05:34:13;;;;;;;0.20;0.20;;;16.40;99.90;;;;;;4970918;28;20191;-69
2021/04/25 05:36:39;;;;;;;0.50;0.50;;;17.20;99.90;;;;;;4971066;28;20188;-70
2021/04/25 05:39:06;;;;;;;2.88;1.52;;;16.90;99.90;;;;;;4970915;28;20207;-70
2021/04/25 05:41:32;;;;;;;0.68;0.68;;;16.80;99.90;;;;;;4970927;28;20247;-70
2021/04/25 05:43:58;;;;;;;1.40;1.30;;;16.60;99.90;;;;;;4970856;28;20160;-70
2021/04/25 05:46:24;;;;;;;0.63;0.63;;;16.10;99.90;;;;;;4970914;28;20187;-69
2021/04/25 05:48:50;;;;;;;1.35;0.82;;;15.50;99.90;;;;;;4970739;28;20168;-69
2021/04/25 05:51:17;;;;;;;0.40;0.40;;;14.90;99.90;;;;;;4970644;29;20165;-70
2021/04/25 05:53:43;;;;;;;0.47;0.47;;;14.90;99.90;;;;;;4970752;28;20215;-69
2021/04/25 05:56:10;;;;;;;1.17;0.63;;;14.40;99.90;;;;;;4970509;28;20175;-70
2021/04/25 05:58:35;;;;;;;0.52;0.52;;;14.50;99.90;;;;;;4986200;28;20214;-69
2021/04/25 06:01:01;;;;;;;1.83;1.48;;;14.70;99.90;;;;;;4989836;28;20166;-69
2021/04/25 06:03:31;;;;;;;1.13;1.02;;;15.60;99.90;;;;;;4988741;28;20272;-70
2021/04/25 06:05:57;;;;;;;1.17;0.98;;;16.40;99.90;;;;;;4989562;28;20183;-69
2021/04/25 06:08:23;;;;;;;0.40;0.40;;;17.60;99.90;;;;;;4989895;28;20163;-69
2021/04/25 06:10:49;;;;;;;1.13;1.02;;;18.20;99.90;;;;;;4988358;28;20195;-69
2021/04/25 06:13:15;;;;;;;0.50;0.50;;;18.50;99.90;;;;;;4988569;28;20262;-69
2021/04/25 06:15:41;;;;;;;2.67;1.23;;;18.80;99.90;;;;;;4989759;28;20187;-69
2021/04/25 06:18:07;;;;;;;0.60;0.55;;;19.00;99.90;;;;;;4989674;28;20196;-69
2021/04/25 06:20:33;;;;;;;1.00;0.90;;;19.10;99.90;;;;;;4988194;28;20231;-69
2021/04/25 06:22:59;;;;;;;0.22;0.22;;;17.60;99.90;;;;;;4988524;28;20179;-69
2021/04/25 06:25:25;;;;;;;2.15;0.43;;;17.40;99.90;;;;;;4989991;28;20171;-69
2021/04/25 06:27:51;;;;;;;0.80;0.80;;;17.40;99.90;;;;;;4989738;28;20172;-68
2021/04/25 06:30:18;;;;;;;0.98;0.98;;;17.50;99.90;;;;;;4989636;28;20313;-68
2021/04/25 06:32:46;;;;;;;1.05;0.98;;;17.30;99.90;;;;;;4988435;28;20186;-69
2021/04/25 06:35:14;;;;;;;4.15;1.13;;;17.60;99.90;;;;;;4989731;28;20664;-69
2021/04/25 06:37:47;;;;;;;0.68;0.68;;;18.30;99.90;;;;;;4989541;28;20250;-69
2021/04/25 06:40:15;;;;;;;0.60;0.52;;;19.50;99.90;;;;;;4989410;28;20195;-69
2021/04/25 06:42:40;;;;;;;0.30;0.30;;;20.30;99.90;;;;;;4989658;28;20159;-69
2021/04/25 06:45:10;;;;;;;0.57;0.45;;;21.30;99.90;;;;;;4988455;28;20207;-69
2021/04/25 06:47:36;;;;;;;0.75;0.75;;;22.40;99.90;;;;;;4989577;28;20155;-69
2021/04/25 06:50:05;;;;;;;0.30;0.30;;;22.10;99.90;;;;;;4989531;28;20579;-70
2021/04/25 06:52:31;;;;;;;1.50;1.40;;;21.40;99.90;;;;;;4988174;28;20629;-68
2021/04/25 06:54:57;;;;;;;0.50;0.47;;;19.60;99.90;;;;;;4989579;28;20243;-69
2021/04/25 06:57:23;;;;;;;1.45;0.95;;;20.60;99.90;;;;;;4983175;28;20533;-69
2021/04/25 06:59:48;;;;;;;8.75;0.57;;;21.40;99.90;;;;;;4969932;28;20202;-70
2021/04/25 07:02:14;;;;;;;0.65;0.63;;;22.50;99.90;;;;;;4970043;28;20219;-70
2021/04/25 07:04:40;;;;;;;1.75;1.58;;;22.10;99.40;;;;;;4974632;28;20263;-69
2021/04/25 07:07:06;;;;;;;0.10;0.10;;;22.00;99.90;;;;;;4970049;28;20167;-69
2021/04/25 07:09:32;;;;;;;0.60;0.60;;;21.20;99.50;;;;;;4968500;29;20327;-69
2021/04/25 07:11:58;;;;;;;0.60;0.60;;;20.20;99.90;;;;;;4970197;28;20156;-69
2021/04/25 07:14:24;;;;;;;1.85;1.75;;;18.90;99.90;;;;;;4970153;28;20257;-68
2021/04/25 07:16:50;;;;;;;0.95;0.73;;;18.80;99.90;;;;;;4968607;29;20203;-69
2021/04/25 07:19:17;;;;;;;0.45;0.45;;;19.30;99.90;;;;;;4968377;29;20222;-69
2021/04/25 07:21:42;;;;;;;1.13;0.82;;;20.00;99.90;;;;;;4969767;28;20266;-70
2021/04/25 07:24:09;;;;;;;1.70;1.60;;;20.50;99.90;;;;;;4968519;29;20183;-68
2021/04/25 07:26:35;;;;;;;0.45;0.35;;;20.00;99.90;;;;;;4968552;29;20186;-69
2021/04/25 07:29:01;;;;;;;1.38;0.73;;;19.50;99.60;;;;;;4969620;28;20214;-69
2021/04/25 07:31:28;;;;;;;0.47;0.47;;;19.00;99.90;;;;;;4969853;28;20175;-69
2021/04/25 07:33:54;;;;;;;0.77;0.77;;;19.40;99.90;;;;;;4969822;28;20228;-68
2021/04/25 07:36:20;;;;;;;0.10;0.10;;;19.20;99.90;;;;;;4969782;28;20161;-69
2021/04/25 07:38:45;;;;;;;1.00;0.82;;;19.10;99.90;;;;;;4969478;28;20161;-70
2021/04/25 07:41:12;;;;;;;1.13;1.13;;;19.80;99.90;;;;;;4969556;28;20219;-70
2021/04/25 07:43:38;;;;;;;2.75;2.42;;;20.90;99.90;;;;;;4969589;28;20175;-70
2021/04/25 07:46:04;;;;;;;0.65;0.65;;;21.00;99.90;;;;;;4969524;28;20148;-70
2021/04/25 07:48:30;;;;;;;3.63;2.47;;;20.60;99.90;;;;;;4969449;28;20243;-70
2021/04/25 07:50:56;;;;;;;1.10;1.10;;;21.00;99.80;;;;;;4969379;28;20677;-70
2021/04/25 07:53:22;;;;;;;0.60;0.60;;;21.20;99.70;;;;;;4973023;28;20160;-69
2021/04/25 07:55:48;;;;;;;0.30;0.25;;;21.00;98.60;;;;;;4972744;28;20191;-69
2021/04/25 07:58:14;;;;;;;1.02;0.95;;;20.60;99.40;;;;;;4985647;28;20203;-71
2021/04/25 08:00:40;;;;;;;0.90;0.82;;;19.70;99.90;;;;;;4990671;28;20198;-69
2021/04/25 08:03:06;;;;;;;2.55;1.08;;;19.80;99.90;;;;;;4991967;28;20650;-69
2021/04/25 08:05:35;;;;;;;3.05;0.65;;;20.00;99.90;;;;;;4991982;28;20187;-70
2021/04/25 08:08:02;;;;;;;0.60;0.57;;;20.10;99.90;;;;;;4990323;28;20181;-69
2021/04/25 08:10:28;;;;;;;2.28;1.25;;;20.30;99.90;;;;;;4991735;28;20603;-69
2021/04/25 08:12:54;;;;;;;0.80;0.80;;;20.30;99.70;;;;;;4990308;28;20179;-69
2021/04/25 08:15:23;;;;;;;0.47;0.47;;;20.50;99.10;;;;;;4991889;28;20160;-70
2021/04/25 08:17:56;;;;;;;1.60;1.10;;;20.50;99.20;;;;;;4991805;28;20212;-70
2021/04/25 08:20:23;;;;;;;0.85;0.80;;;19.90;99.30;;;;;;4990935;28;20219;-69
2021/04/25 08:22:49;;;;;;;3.35;2.10;;;19.70;99.90;;;;;;4991589;28;20195;-69
2021/04/25 08:25:15;;;;;;;3.00;0.75;;;19.70;99.90;;;;;;4991699;28;20164;-70
2021/04/25 08:27:41;;;;;;;0.98;0.98;;;19.90;99.20;;;;;;4991441;28;20195;-70
2021/04/25 08:30:08;;;;;;;0.60;0.60;;;20.10;98.90;;;;;;4989584;28;20209;-70
2021/04/25 08:32:34;;;;;;;1.40;1.30;;;20.00;99.00;;;;;;4991548;28;20156;-70
2021/04/25 08:35:01;;;;;;;1.13;0.75;;;19.60;99.90;;;;;;4990144;28;20211;-70
2021/04/25 08:37:27;;;;;;;1.40;1.13;;;19.90;99.50;;;;;;4991399;28;20597;-69
2021/04/25 08:39:53;;;;;;;1.40;0.95;;;20.00;98.90;;;;;;4989491;28;20334;-69
2021/04/25 08:42:19;;;;;;;1.55;0.75;;;19.60;99.70;;;;;;4991332;28;20243;-68
2021/04/25 08:44:45;;;;;;;0.65;0.65;;;19.70;99.30;;;;;;4991027;28;20175;-68
2021/04/25 08:47:14;;;;;;;0.38;0.38;;;19.50;99.90;;;;;;4991288;28;20242;-70
2021/04/25 08:49:42;;;;;;;0.77;0.70;;;20.10;98.50;;;;;;4989614;28;20202;-70
2021/04/25 08:52:10;;;;;;;0.80;0.80;;;20.90;98.20;;;;;;4990660;28;20227;-69
2021/04/25 08:54:36;;;;;;;1.60;0.63;;;20.90;97.10;;;;;;4991211;28;20155;-70
2021/04/25 08:57:03;;;;;;;2.33;1.27;;;20.90;99.50;;;;;;4990905;28;20253;-69
2021/04/25 08:59:29;;;;;;;1.02;1.02;;;21.70;97.90;;;;;;4990566;28;20186;-69
2021/04/25 09:01:56;;;;;;;0.75;0.75;;;22.10;98.00;;;;;;4990082;28;20170;-69
2021/04/25 09:04:22;;;;;;;0.80;0.80;;;22.90;96.10;;;;;;4989627;28;20645;-70
2021/04/25 09:06:59;;;;;;;2.45;1.60;;;23.50;95.10;;;;;;4972077;28;20238;-71
2021/04/25 09:09:46;;;;;;;1.63;1.52;;;24.10;94.00;;;;;;4971368;28;20253;-69
2021/04/25 09:12:28;;;;;;;1.48;1.38;;;24.40;93.90;;;;;;4970813;28;20230;-70
2021/04/25 09:14:54;;;;;;;0.75;0.73;;;25.10;94.80;;;;;;4971361;28;20272;-71
2021/04/25 09:17:20;;;;;;;0.65;0.65;;;24.30;93.90;;;;;;4971203;28;20191;-71
2021/04/25 09:19:58;;;;;;;1.50;0.77;;;25.20;93.30;;;;;;4969610;29;20291;-71
2021/04/25 09:22:45;;;;;;;0.73;0.73;;;25.40;92.20;;;;;;4970580;28;20194;-71
2021/04/25 09:25:18;;;;;;;1.45;0.95;;;24.90;91.90;;;;;;4971279;28;20250;-70
2021/04/25 09:27:46;;;;;;;1.60;0.90;;;24.30;92.40;;;;;;4969630;29;20377;-71
2021/04/25 09:30:23;;;;;;;2.15;1.52;;;24.40;93.50;;;;;;4971206;28;20668;-71
2021/04/25 09:33:00;;;;;;;1.48;1.13;;;25.00;92.80;;;;;;4971248;28;20171;-71
2021/04/25 09:35:26;;;;;;;0.50;0.50;;;25.60;91.50;;;;;;4969725;29;20183;-69
2021/04/25 09:37:52;;;;;;;0.85;0.85;;;25.50;90.90;;;;;;4970932;28;20214;-72
2021/04/25 09:40:23;;;;;;;0.35;0.35;;;25.10;92.40;;;;;;4970939;28;20164;-71
2021/04/25 09:43:06;;;;;;;0.93;0.93;;;24.40;91.00;;;;;;4970873;28;20322;-71
2021/04/25 09:45:36;;;;;;;1.10;1.10;;;23.80;91.70;;;;;;4970857;28;20160;-71
2021/04/25 09:48:17;;;;;;;13.45;0.55;;;24.00;91.50;;;;;;4970702;28;20195;-71
2021/04/25 09:50:44;;;;;;;1.48;1.27;;;24.90;90.60;;;;;;4969365;29;20180;-72
2021/04/25 09:53:19;;;;;;;1.02;1.00;;;25.40;90.00;;;;;;4970622;28;20160;-71
2021/04/25 09:55:56;;;;;;;2.63;0.88;;;25.40;89.80;;;;;;4970261;28;20446;-70
2021/04/25 09:58:22;;;;;;;1.13;1.13;;;25.20;91.50;;;;;;4968859;29;20214;-70
2021/04/25 10:00:50;;;;;;;0.52;0.50;;;25.20;90.00;;;;;;4975881;28;20254;-70
2021/04/25 10:03:20;;;;;;;1.40;1.13;;;25.60;89.50;;;;;;4989863;28;20222;-70
2021/04/25 10:06:18;;;;;;;1.80;1.65;;;25.60;91.40;;;;;;4989571;28;20189;-71
2021/04/25 10:08:49;;;;;;;1.95;1.30;;;26.70;89.70;;;;;;4985526;28;20190;-71
2021/04/25 10:11:16;;;;;;;5.85;1.30;;;25.30;91.10;;;;;;4989650;28;20185;-70
2021/04/25 10:13:45;;;;;;;1.77;1.67;;;24.70;91.00;;;;;;4987568;28;20247;-70
2021/04/25 10:16:16;;;;;;;0.50;0.50;;;23.80;90.80;;;;;;4989694;28;20215;-69
2021/04/25 10:18:43;;;;;;;1.45;0.90;;;23.70;92.20;;;;;;4989516;28;20182;-71
2021/04/25 10:21:09;;;;;;;5.57;1.45;;;25.00;90.40;;;;;;4989418;28;20245;-71
2021/04/25 10:23:36;;;;;;;1.88;1.20;;;25.80;90.30;;;;;;4989362;28;20155;-69
2021/04/25 10:26:12;;;;;;;1.00;0.95;;;26.20;85.60;;;;;;4989397;28;20155;-69
2021/04/25 10:28:48;;;;;;;0.77;0.77;;;25.00;87.60;;;;;;4989289;28;20163;-70
2021/04/25 10:31:36;;;;;;;0.98;0.98;;;24.30;87.40;;;;;;4989342;28;20166;-69
2021/04/25 10:34:03;;;;;;;3.63;1.58;;;24.40;87.50;;;;;;4989199;28;20228;-69
2021/04/25 10:36:45;;;;;;;0.80;0.80;;;25.10;90.00;;;;;;4987876;28;20170;-69
2021/04/25 10:39:39;;;;;;;0.50;0.50;;;26.30;85.60;;;;;;4989267;28;20258;-71
2021/04/25 10:42:17;;;;;;;0.73;0.65;;;26.00;84.20;;;;;;4987787;28;20187;-70
2021/04/25 10:44:59;;;;;;;1.95;0.85;;;25.10;88.50;;;;;;4989184;28;20151;-70
2021/04/25 10:47:38;;;;;;;1.50;1.40;;;24.70;90.00;;;;;;4989218;28;20171;-70
2021/04/25 10:50:13;;;;;;;1.80;1.25;;;24.50;88.30;;;;;;4989065;28;20210;-71
2021/04/25 10:52:39;;;;;;;0.93;0.82;;;24.20;89.80;;;;;;4987808;28;20233;-69
2021/04/25 10:55:14;;;;;;;0.88;0.85;;;25.00;87.00;;;;;;4989209;28;20159;-69
2021/04/25 10:58:02;;;;;;;0.85;0.85;;;24.80;85.90;;;;;;4980748;28;20201;-69
2021/04/25 11:03:04;;;;;;;1.25;0.77;;;26.90;85.00;;;;;;4969804;29;20171;-70
2021/04/25 11:05:39;;;;;;;0.43;0.43;;;26.30;82.80;;;;;;4969737;28;20180;-70
2021/04/25 11:08:17;;;;;;;0.90;0.82;;;26.50;85.80;;;;;;4969588;28;20194;-71
2021/04/25 11:11:05;;;;;;;0.35;0.35;;;26.70;84.80;;;;;;4969526;28;20187;-71
2021/04/25 11:13:37;;;;;;;0.75;0.75;;;27.40;89.00;;;;;;4969564;28;20498;-71
2021/04/25 11:16:03;;;;;;;2.45;1.20;;;28.20;86.80;;;;;;4969638;28;20171;-70
2021/04/25 11:19:04;;;;;;;3.08;1.73;;;28.00;80.10;;;;;;4968072;29;20250;-70
2021/04/25 11:24:22;;;;;;;0.80;0.80;;;25.80;83.80;;;;;;4969658;28;20172;-70
2021/04/25 11:26:51;;;;;;;0.95;0.88;;;25.30;84.40;;;;;;4973322;28;20230;-71
2021/04/25 11:29:23;;;;;;;20.65;1.50;;;26.50;85.80;;;;;;4972052;28;20206;-71
2021/04/25 11:31:54;;;;;;;1.20;1.10;;;27.40;82.00;;;;;;4973105;28;20207;-70
2021/04/25 11:34:26;;;;;;;1.23;1.08;;;27.50;80.00;;;;;;4972468;28;20195;-70
2021/04/25 11:37:05;;;;;;;2.80;2.08;;;26.20;81.80;;;;;;4971438;29;20203;-69
2021/04/25 11:39:35;;;;;;;1.17;1.13;;;26.60;82.00;;;;;;4971043;28;20199;-69
2021/04/25 11:42:02;;;;;;;1.80;1.65;;;26.60;80.50;;;;;;4972592;28;20167;-70
2021/04/25 11:44:36;;;;;;;0.95;0.75;;;26.20;83.00;;;;;;4973044;28;20195;-70
2021/04/25 11:47:06;;;;;;;1.88;1.25;;;26.60;82.00;;;;;;4972586;28;20168;-71
2021/04/25 11:49:35;;;;;;;1.08;0.77;;;26.00;80.60;;;;;;4970093;28;20515;-70
2021/04/25 11:52:24;;;;;;;2.35;1.13;;;26.00;81.70;;;;;;4985462;28;20186;-70
2021/04/25 11:55:07;;;;;;;0.63;0.63;;;25.60;81.80;;;;;;4977252;28;20191;-70
2021/04/25 11:57:36;;;;;;;1.63;1.45;;;25.30;83.80;;;;;;4971997;28;20191;-71
2021/04/25 12:00:32;;;;;;;0.68;0.63;;;26.10;83.50;;;;;;4972261;28;20187;-70
2021/04/25 12:03:00;;;;;;;0.50;0.40;;;26.10;82.90;;;;;;4972453;28;20189;-70
2021/04/25 12:05:31;;;;;;;0.70;0.70;;;26.30;82.40;;;;;;4986584;28;20203;-71
2021/04/25 12:08:02;;;;;;;0.95;0.60;;;25.90;83.20;;;;;;4984702;28;20171;-70
2021/04/25 12:10:37;;;;;;;1.15;1.02;;;25.40;80.90;;;;;;4975506;28;20172;-70
2021/04/25 12:13:22;;;;;;;0.63;0.50;;;24.20;81.50;;;;;;4986118;28;20182;-70
2021/04/25 12:15:55;;;;;;;4.22;1.42;;;23.50;83.70;;;;;;4982940;28;20205;-69
2021/04/25 12:18:28;;;;;;;0.50;0.50;;;22.80;83.50;;;;;;4991087;28;20191;-70
2021/04/25 12:20:58;;;;;;;1.27;0.65;;;22.80;84.20;;;;;;4975818;28;20215;-70
2021/04/25 12:23:36;;;;;;;3.15;1.20;;;22.60;86.10;;;;;;4982962;28;20249;-70
2021/04/25 12:26:13;;;;;;;1.30;1.20;;;22.20;86.60;;;;;;4985067;28;20171;-70
2021/04/25 12:28:47;;;;;;;2.38;1.30;;;21.60;87.10;;;;;;4985378;28;20203;-70
2021/04/25 12:31:15;;;;;;;0.88;0.55;;;21.40;86.90;;;;;;4978344;28;20195;-70
2021/04/25 12:33:48;;;;;;;0.50;0.50;;;21.40;89.50;;;;;;4980574;28;20172;-71
2021/04/25 12:36:17;;;;;;;0.93;0.90;;;21.10;87.80;;;;;;4985505;28;20172;-69
2021/04/25 12:38:54;;;;;;;2.22;1.40;;;21.20;89.80;;;;;;4974443;28;20307;-69
2021/04/25 12:41:23;;;;;;;0.52;0.52;;;20.50;91.70;;;;;;4981804;28;20227;-69
2021/04/25 12:43:49;;;;;;;1.58;1.45;;;20.00;92.50;;;;;;4982736;28;20171;-69
2021/04/25 12:46:24;;;;;;;0.65;0.65;;;19.50;93.10;;;;;;4975806;28;20175;-69
2021/04/25 12:49:01;;;;;;;0.88;0.88;;;18.80;93.80;;;;;;4974901;28;20183;-69
2021/04/25 12:51:29;;;;;;;0.50;0.50;;;18.50;94.90;;;;;;4980795;28;20176;-69
2021/04/25 12:53:58;;;;;;;0.85;0.85;;;18.50;95.50;;;;;;4971489;28;20188;-70
2021/04/25 12:56:27;;;;;;;0.38;0.38;;;18.30;95.60;;;;;;4971481;28;20183;-68
2021/04/25 12:59:12;;;;;;;0.35;0.35;;;18.30;95.90;;;;;;4989738;28;20282;-68
2021/04/25 13:01:39;;;;;;;0.70;0.70;;;18.20;96.00;;;;;;4989761;28;20266;-68
2021/04/25 13:04:24;;;;;;;0.43;0.43;;;18.20;95.80;;;;;;4989376;28;20222;-68